sensor_id;sensor_type;location;lat;lon;timestamp;temperature;humidity
68378;DHT22;55322;48.146;11.516;2023-04-25T00:00:57;7.38;80.07
68378;DHT22;55322;48.146;11.516;2023-04-25T00:03:22;7.32;80.57
68378;DHT22;55322;48.146;11.516;2023-04-25T00:05:50;7.36;80.59
68378;DHT22;55322;48.146;11.516;2023-04-25T00:08:16;7.33;81.72
68378;DHT22;55322;48.146;11.516;2023-04-25T00:10:42;7.38;81.00
68378;DHT22;55322;48.146;11.516;2023-04-25T00:13:07;7.40;80.50
68378;DHT22;55322;48.146;11.516;2023-04-25T00:15:33;7.36;81.34
68378;DHT22;55322;48.146;11.516;2023-04-25T00:18:01;7.40;80.78
68378;DHT22;55322;48.146;11.516;2023-04-25T00:20:26;7.52;80.16
68378;DHT22;55322;48.146;11.516;2023-04-25T00:22:51;7.50;80.05
68378;DHT22;55322;48.146;11.516;2023-04-25T00:25:18;7.50;79.91
68378;DHT22;55322;48.146;11.516;2023-04-25T00:27:44;7.52;80.18
68378;DHT22;55322;48.146;11.516;2023-04-25T00:30:09;7.49;80.06
68378;DHT22;55322;48.146;11.516;2023-04-25T00:32:35;7.55;79.53
68378;DHT22;55322;48.146;11.516;2023-04-25T00:35:01;7.59;79.45
68378;DHT22;55322;48.146;11.516;2023-04-25T00:37:27;7.58;80.06
68378;DHT22;55322;48.146;11.516;2023-04-25T00:39:52;7.55;79.32
68378;DHT22;55322;48.146;11.516;2023-04-25T00:42:20;7.49;80.21
68378;DHT22;55322;48.146;11.516;2023-04-25T00:44:46;7.42;80.11
68378;DHT22;55322;48.146;11.516;2023-04-25T00:47:11;7.32;80.92
68378;DHT22;55322;48.146;11.516;2023-04-25T00:49:37;7.28;80.90
68378;DHT22;55322;48.146;11.516;2023-04-25T00:52:03;7.22;81.52
68378;DHT22;55322;48.146;11.516;2023-04-25T00:54:28;7.25;80.31
68378;DHT22;55322;48.146;11.516;2023-04-25T00:56:55;7.22;80.31
68378;DHT22;55322;48.146;11.516;2023-04-25T00:59:21;7.18;80.31
68378;DHT22;55322;48.146;11.516;2023-04-25T01:01:46;7.22;80.42
68378;DHT22;55322;48.146;11.516;2023-04-25T01:04:12;7.11;81.16
68378;DHT22;55322;48.146;11.516;2023-04-25T01:06:38;7.04;81.68
68378;DHT22;55322;48.146;11.516;2023-04-25T01:09:03;6.92;81.85
68378;DHT22;55322;48.146;11.516;2023-04-25T01:11:29;6.98;81.00
68378;DHT22;55322;48.146;11.516;2023-04-25T01:13:55;6.98;80.94
68378;DHT22;55322;48.146;11.516;2023-04-25T01:16:20;6.99;80.33
68378;DHT22;55322;48.146;11.516;2023-04-25T01:18:46;6.95;80.74
68378;DHT22;55322;48.146;11.516;2023-04-25T01:21:12;6.92;80.52
68378;DHT22;55322;48.146;11.516;2023-04-25T01:23:41;6.88;81.59
68378;DHT22;55322;48.146;11.516;2023-04-25T01:26:09;6.88;81.28
68378;DHT22;55322;48.146;11.516;2023-04-25T01:28:34;6.85;81.50
68378;DHT22;55322;48.146;11.516;2023-04-25T01:31:01;6.80;82.57
68378;DHT22;55322;48.146;11.516;2023-04-25T01:33:26;6.73;83.00
68378;DHT22;55322;48.146;11.516;2023-04-25T01:35:52;6.75;82.40
68378;DHT22;55322;48.146;11.516;2023-04-25T01:38:17;6.73;82.69
68378;DHT22;55322;48.146;11.516;2023-04-25T01:40:44;6.60;82.94
68378;DHT22;55322;48.146;11.516;2023-04-25T01:43:10;6.48;84.28
68378;DHT22;55322;48.146;11.516;2023-04-25T01:45:38;6.34;85.13
68378;DHT22;55322;48.146;11.516;2023-04-25T01:48:07;6.29;85.28
68378;DHT22;55322;48.146;11.516;2023-04-25T01:50:32;6.20;85.33
68378;DHT22;55322;48.146;11.516;2023-04-25T01:52:58;6.17;85.26
68378;DHT22;55322;48.146;11.516;2023-04-25T01:55:23;6.09;85.86
68378;DHT22;55322;48.146;11.516;2023-04-25T01:57:48;6.09;85.12
68378;DHT22;55322;48.146;11.516;2023-04-25T02:00:14;6.10;84.64
68378;DHT22;55322;48.146;11.516;2023-04-25T02:02:39;6.12;84.49
68378;DHT22;55322;48.146;11.516;2023-04-25T02:05:05;6.26;82.18
68378;DHT22;55322;48.146;11.516;2023-04-25T02:07:31;6.33;81.36
68378;DHT22;55322;48.146;11.516;2023-04-25T02:09:57;6.24;83.36
68378;DHT22;55322;48.146;11.516;2023-04-25T02:12:22;6.24;83.22
68378;DHT22;55322;48.146;11.516;2023-04-25T02:14:48;6.24;83.55
68378;DHT22;55322;48.146;11.516;2023-04-25T02:17:13;6.22;83.56
68378;DHT22;55322;48.146;11.516;2023-04-25T02:19:39;6.19;83.93
68378;DHT22;55322;48.146;11.516;2023-04-25T02:22:04;6.20;83.97
68378;DHT22;55322;48.146;11.516;2023-04-25T02:24:30;6.23;82.88
68378;DHT22;55322;48.146;11.516;2023-04-25T02:26:56;6.24;83.72
68378;DHT22;55322;48.146;11.516;2023-04-25T02:29:22;6.27;83.32
68378;DHT22;55322;48.146;11.516;2023-04-25T02:31:47;6.29;83.60
68378;DHT22;55322;48.146;11.516;2023-04-25T02:34:13;6.36;83.18
68378;DHT22;55322;48.146;11.516;2023-04-25T02:36:38;6.32;83.29
68378;DHT22;55322;48.146;11.516;2023-04-25T02:39:03;6.38;82.30
68378;DHT22;55322;48.146;11.516;2023-04-25T02:41:29;6.43;81.35
68378;DHT22;55322;48.146;11.516;2023-04-25T02:43:54;6.50;81.80
68378;DHT22;55322;48.146;11.516;2023-04-25T02:46:20;6.53;81.97
68378;DHT22;55322;48.146;11.516;2023-04-25T02:48:45;6.53;81.96
68378;DHT22;55322;48.146;11.516;2023-04-25T02:51:10;6.53;82.29
68378;DHT22;55322;48.146;11.516;2023-04-25T02:53:36;6.58;81.71
68378;DHT22;55322;48.146;11.516;2023-04-25T02:56:01;6.64;81.41
68378;DHT22;55322;48.146;11.516;2023-04-25T02:58:26;6.65;81.45
68378;DHT22;55322;48.146;11.516;2023-04-25T03:00:52;6.71;81.28
68378;DHT22;55322;48.146;11.516;2023-04-25T03:03:17;6.77;80.85
68378;DHT22;55322;48.146;11.516;2023-04-25T03:05:43;6.81;80.40
68378;DHT22;55322;48.146;11.516;2023-04-25T03:08:09;6.85;80.13
68378;DHT22;55322;48.146;11.516;2023-04-25T03:10:34;6.94;79.17
68378;DHT22;55322;48.146;11.516;2023-04-25T03:12:59;6.94;80.45
68378;DHT22;55322;48.146;11.516;2023-04-25T03:15:25;6.94;80.82
68378;DHT22;55322;48.146;11.516;2023-04-25T03:17:50;7.01;79.82
68378;DHT22;55322;48.146;11.516;2023-04-25T03:20:15;6.98;80.33
68378;DHT22;55322;48.146;11.516;2023-04-25T03:22:41;6.94;81.05
68378;DHT22;55322;48.146;11.516;2023-04-25T03:25:07;6.97;80.36
68378;DHT22;55322;48.146;11.516;2023-04-25T03:27:32;6.99;79.99
68378;DHT22;55322;48.146;11.516;2023-04-25T03:29:58;7.01;79.57
68378;DHT22;55322;48.146;11.516;2023-04-25T03:32:23;6.89;79.77
68378;DHT22;55322;48.146;11.516;2023-04-25T03:34:48;6.91;80.29
68378;DHT22;55322;48.146;11.516;2023-04-25T03:37:14;6.89;79.64
68378;DHT22;55322;48.146;11.516;2023-04-25T03:39:39;6.84;80.20
68378;DHT22;55322;48.146;11.516;2023-04-25T03:42:04;6.83;79.74
68378;DHT22;55322;48.146;11.516;2023-04-25T03:44:30;6.78;79.83
68378;DHT22;55322;48.146;11.516;2023-04-25T03:46:55;6.70;80.62
68378;DHT22;55322;48.146;11.516;2023-04-25T03:49:20;6.67;80.57
68378;DHT22;55322;48.146;11.516;2023-04-25T03:51:46;6.64;80.56
68378;DHT22;55322;48.146;11.516;2023-04-25T03:54:11;6.63;80.81
68378;DHT22;55322;48.146;11.516;2023-04-25T03:56:36;6.70;79.74
68378;DHT22;55322;48.146;11.516;2023-04-25T03:59:02;6.60;81.38
68378;DHT22;55322;48.146;11.516;2023-04-25T04:01:27;6.60;80.71
68378;DHT22;55322;48.146;11.516;2023-04-25T04:03:52;6.60;80.69
68378;DHT22;55322;48.146;11.516;2023-04-25T04:06:17;6.61;81.39
68378;DHT22;55322;48.146;11.516;2023-04-25T04:08:43;6.64;80.74
68378;DHT22;55322;48.146;11.516;2023-04-25T04:11:09;6.71;80.05
68378;DHT22;55322;48.146;11.516;2023-04-25T04:13:34;6.60;80.25
68378;DHT22;55322;48.146;11.516;2023-04-25T04:15:59;6.51;81.55
68378;DHT22;55322;48.146;11.516;2023-04-25T04:18:25;6.57;81.37
68378;DHT22;55322;48.146;11.516;2023-04-25T04:20:50;6.51;81.10
68378;DHT22;55322;48.146;11.516;2023-04-25T04:23:16;6.53;81.54
68378;DHT22;55322;48.146;11.516;2023-04-25T04:25:41;6.47;82.78
68378;DHT22;55322;48.146;11.516;2023-04-25T04:28:07;6.50;82.36
68378;DHT22;55322;48.146;11.516;2023-04-25T04:30:32;6.48;81.91
68378;DHT22;55322;48.146;11.516;2023-04-25T04:33:01;6.48;83.28
68378;DHT22;55322;48.146;11.516;2023-04-25T04:35:26;6.53;82.74
68378;DHT22;55322;48.146;11.516;2023-04-25T04:37:53;6.53;82.67
68378;DHT22;55322;48.146;11.516;2023-04-25T04:40:18;6.57;82.36
68378;DHT22;55322;48.146;11.516;2023-04-25T04:42:44;6.67;82.14
68378;DHT22;55322;48.146;11.516;2023-04-25T04:45:13;6.60;82.87
68378;DHT22;55322;48.146;11.516;2023-04-25T04:47:39;6.61;82.81
68378;DHT22;55322;48.146;11.516;2023-04-25T04:50:08;6.60;82.76
68378;DHT22;55322;48.146;11.516;2023-04-25T04:52:35;6.64;82.31
68378;DHT22;55322;48.146;11.516;2023-04-25T04:55:02;6.58;83.03
68378;DHT22;55322;48.146;11.516;2023-04-25T04:57:28;6.64;82.45
68378;DHT22;55322;48.146;11.516;2023-04-25T04:59:53;6.71;81.94
68378;DHT22;55322;48.146;11.516;2023-04-25T05:02:18;6.67;82.03
68378;DHT22;55322;48.146;11.516;2023-04-25T05:04:44;6.65;82.58
68378;DHT22;55322;48.146;11.516;2023-04-25T05:07:10;6.68;82.20
68378;DHT22;55322;48.146;11.516;2023-04-25T05:09:35;6.75;82.96
68378;DHT22;55322;48.146;11.516;2023-04-25T05:12:00;6.78;82.58
68378;DHT22;55322;48.146;11.516;2023-04-25T05:14:26;6.80;82.75
68378;DHT22;55322;48.146;11.516;2023-04-25T05:16:51;6.75;83.43
68378;DHT22;55322;48.146;11.516;2023-04-25T05:19:16;6.77;83.37
68378;DHT22;55322;48.146;11.516;2023-04-25T05:21:42;6.74;81.77
68378;DHT22;55322;48.146;11.516;2023-04-25T05:24:08;6.77;83.39
68378;DHT22;55322;48.146;11.516;2023-04-25T05:26:33;6.78;82.99
68378;DHT22;55322;48.146;11.516;2023-04-25T05:28:59;6.77;83.05
68378;DHT22;55322;48.146;11.516;2023-04-25T05:31:25;6.83;82.42
68378;DHT22;55322;48.146;11.516;2023-04-25T05:33:51;6.78;83.20
68378;DHT22;55322;48.146;11.516;2023-04-25T05:36:16;6.78;83.43
68378;DHT22;55322;48.146;11.516;2023-04-25T05:38:41;6.81;84.01
68378;DHT22;55322;48.146;11.516;2023-04-25T05:41:07;6.88;83.77
68378;DHT22;55322;48.146;11.516;2023-04-25T05:43:32;6.88;83.51
68378;DHT22;55322;48.146;11.516;2023-04-25T05:45:57;6.94;83.76
68378;DHT22;55322;48.146;11.516;2023-04-25T05:48:23;6.95;83.48
68378;DHT22;55322;48.146;11.516;2023-04-25T05:50:48;7.04;83.20
68378;DHT22;55322;48.146;11.516;2023-04-25T05:53:14;6.99;84.82
68378;DHT22;55322;48.146;11.516;2023-04-25T05:55:39;6.98;83.73
68378;DHT22;55322;48.146;11.516;2023-04-25T05:58:05;6.78;84.43
68378;DHT22;55322;48.146;11.516;2023-04-25T06:00:31;6.68;84.88
68378;DHT22;55322;48.146;11.516;2023-04-25T06:02:56;6.45;86.95
68378;DHT22;55322;48.146;11.516;2023-04-25T06:05:22;6.48;88.55
68378;DHT22;55322;48.146;11.516;2023-04-25T06:07:47;6.34;88.29
68378;DHT22;55322;48.146;11.516;2023-04-25T06:10:12;6.26;88.51
68378;DHT22;55322;48.146;11.516;2023-04-25T06:12:38;6.13;88.71
68378;DHT22;55322;48.146;11.516;2023-04-25T06:15:04;6.07;89.41
68378;DHT22;55322;48.146;11.516;2023-04-25T06:17:30;5.99;91.39
68378;DHT22;55322;48.146;11.516;2023-04-25T06:19:55;6.00;91.59
68378;DHT22;55322;48.146;11.516;2023-04-25T06:22:20;6.09;92.23
68378;DHT22;55322;48.146;11.516;2023-04-25T06:24:46;6.03;91.86
68378;DHT22;55322;48.146;11.516;2023-04-25T06:27:11;6.14;92.02
68378;DHT22;55322;48.146;11.516;2023-04-25T06:29:37;6.30;90.74
68378;DHT22;55322;48.146;11.516;2023-04-25T06:32:02;6.57;91.79
68378;DHT22;55322;48.146;11.516;2023-04-25T06:34:27;6.67;91.45
68378;DHT22;55322;48.146;11.516;2023-04-25T06:36:53;6.71;91.17
68378;DHT22;55322;48.146;11.516;2023-04-25T06:39:18;6.92;90.43
68378;DHT22;55322;48.146;11.516;2023-04-25T06:41:45;7.83;88.11
68378;DHT22;55322;48.146;11.516;2023-04-25T06:44:10;8.55;86.46
68378;DHT22;55322;48.146;11.516;2023-04-25T06:46:35;8.58;84.70
68378;DHT22;55322;48.146;11.516;2023-04-25T06:49:01;10.79;79.04
68378;DHT22;55322;48.146;11.516;2023-04-25T06:51:27;11.02;76.97
68378;DHT22;55322;48.146;11.516;2023-04-25T06:53:54;12.72;68.80
68378;DHT22;55322;48.146;11.516;2023-04-25T06:56:20;12.30;72.23
68378;DHT22;55322;48.146;11.516;2023-04-25T06:58:46;11.17;73.43
68378;DHT22;55322;48.146;11.516;2023-04-25T07:01:11;10.49;76.69
68378;DHT22;55322;48.146;11.516;2023-04-25T07:03:37;9.95;78.77
68378;DHT22;55322;48.146;11.516;2023-04-25T07:06:03;9.71;80.07
68378;DHT22;55322;48.146;11.516;2023-04-25T07:08:29;9.10;79.10
68378;DHT22;55322;48.146;11.516;2023-04-25T07:10:54;8.95;82.29
68378;DHT22;55322;48.146;11.516;2023-04-25T07:13:20;8.79;84.11
68378;DHT22;55322;48.146;11.516;2023-04-25T07:15:45;8.49;84.04
68378;DHT22;55322;48.146;11.516;2023-04-25T07:18:12;8.58;83.92
68378;DHT22;55322;48.146;11.516;2023-04-25T07:20:38;8.64;83.19
68378;DHT22;55322;48.146;11.516;2023-04-25T07:23:03;8.80;83.56
68378;DHT22;55322;48.146;11.516;2023-04-25T07:25:28;8.92;82.74
68378;DHT22;55322;48.146;11.516;2023-04-25T07:27:55;9.19;84.17
68378;DHT22;55322;48.146;11.516;2023-04-25T07:30:21;9.33;79.90
68378;DHT22;55322;48.146;11.516;2023-04-25T07:32:48;9.51;79.94
68378;DHT22;55322;48.146;11.516;2023-04-25T07:35:13;9.74;79.99
68378;DHT22;55322;48.146;11.516;2023-04-25T07:37:39;9.88;80.52
68378;DHT22;55322;48.146;11.516;2023-04-25T07:40:05;10.08;78.71
68378;DHT22;55322;48.146;11.516;2023-04-25T07:42:30;10.68;76.22
68378;DHT22;55322;48.146;11.516;2023-04-25T07:44:56;11.24;75.09
68378;DHT22;55322;48.146;11.516;2023-04-25T07:47:21;12.01;74.18
68378;DHT22;55322;48.146;11.516;2023-04-25T07:49:47;12.66;69.78
68378;DHT22;55322;48.146;11.516;2023-04-25T07:52:12;13.74;69.05
68378;DHT22;55322;48.146;11.516;2023-04-25T07:54:38;14.73;65.43
68378;DHT22;55322;48.146;11.516;2023-04-25T07:57:03;15.42;61.45
68378;DHT22;55322;48.146;11.516;2023-04-25T07:59:29;15.90;58.92
68378;DHT22;55322;48.146;11.516;2023-04-25T08:01:54;15.30;60.20
68378;DHT22;55322;48.146;11.516;2023-04-25T08:04:19;15.25;59.43
68378;DHT22;55322;48.146;11.516;2023-04-25T08:06:45;14.87;61.38
68378;DHT22;55322;48.146;11.516;2023-04-25T08:09:10;15.11;61.54
68378;DHT22;55322;48.146;11.516;2023-04-25T08:11:36;16.85;58.45
68378;DHT22;55322;48.146;11.516;2023-04-25T08:14:01;15.90;57.58
68378;DHT22;55322;48.146;11.516;2023-04-25T08:16:27;15.01;60.00
68378;DHT22;55322;48.146;11.516;2023-04-25T08:18:52;14.25;61.81
68378;DHT22;55322;48.146;11.516;2023-04-25T08:21:18;13.57;65.60
68378;DHT22;55322;48.146;11.516;2023-04-25T08:23:43;12.63;65.28
68378;DHT22;55322;48.146;11.516;2023-04-25T08:26:08;12.48;65.92
68378;DHT22;55322;48.146;11.516;2023-04-25T08:28:34;12.19;67.80
68378;DHT22;55322;48.146;11.516;2023-04-25T08:30:59;11.58;68.79
68378;DHT22;55322;48.146;11.516;2023-04-25T08:33:25;12.30;68.65
68378;DHT22;55322;48.146;11.516;2023-04-25T08:35:50;13.21;66.63
68378;DHT22;55322;48.146;11.516;2023-04-25T08:38:16;14.63;61.61
68378;DHT22;55322;48.146;11.516;2023-04-25T08:40:43;14.53;56.25
68378;DHT22;55322;48.146;11.516;2023-04-25T08:43:08;15.68;58.17
68378;DHT22;55322;48.146;11.516;2023-04-25T08:45:41;16.49;55.39
68378;DHT22;55322;48.146;11.516;2023-04-25T08:48:12;17.65;51.94
68378;DHT22;55322;48.146;11.516;2023-04-25T08:50:58;17.82;50.89
68378;DHT22;55322;48.146;11.516;2023-04-25T08:53:28;17.12;47.83
68378;DHT22;55322;48.146;11.516;2023-04-25T08:55:54;17.31;47.56
68378;DHT22;55322;48.146;11.516;2023-04-25T08:58:21;17.96;48.90
68378;DHT22;55322;48.146;11.516;2023-04-25T09:00:47;17.90;46.54
68378;DHT22;55322;48.146;11.516;2023-04-25T09:03:13;19.05;45.26
68378;DHT22;55322;48.146;11.516;2023-04-25T09:05:40;18.03;48.20
68378;DHT22;55322;48.146;11.516;2023-04-25T09:08:05;17.11;45.31
68378;DHT22;55322;48.146;11.516;2023-04-25T09:10:31;17.86;46.49
68378;DHT22;55322;48.146;11.516;2023-04-25T09:13:11;18.14;45.91
68378;DHT22;55322;48.146;11.516;2023-04-25T09:15:56;17.89;46.68
68378;DHT22;55322;48.146;11.516;2023-04-25T09:18:26;15.36;48.20
68378;DHT22;55322;48.146;11.516;2023-04-25T09:20:56;13.75;53.74
68378;DHT22;55322;48.146;11.516;2023-04-25T09:23:23;13.85;57.25
68378;DHT22;55322;48.146;11.516;2023-04-25T09:25:50;13.18;57.17
68378;DHT22;55322;48.146;11.516;2023-04-25T09:28:16;13.47;54.99
68378;DHT22;55322;48.146;11.516;2023-04-25T09:30:41;13.99;53.51
68378;DHT22;55322;48.146;11.516;2023-04-25T09:33:08;13.45;56.91
68378;DHT22;55322;48.146;11.516;2023-04-25T09:35:42;12.36;55.97
68378;DHT22;55322;48.146;11.516;2023-04-25T09:38:14;12.52;56.51
68378;DHT22;55322;48.146;11.516;2023-04-25T09:40:42;12.48;57.58
68378;DHT22;55322;48.146;11.516;2023-04-25T09:43:24;12.38;57.88
68378;DHT22;55322;48.146;11.516;2023-04-25T09:45:53;12.53;56.07
68378;DHT22;55322;48.146;11.516;2023-04-25T09:48:19;13.15;57.55
68378;DHT22;55322;48.146;11.516;2023-04-25T09:53:29;13.98;55.16
68378;DHT22;55322;48.146;11.516;2023-04-25T09:55:55;14.71;54.53
68378;DHT22;55322;48.146;11.516;2023-04-25T09:58:23;14.60;54.15
68378;DHT22;55322;48.146;11.516;2023-04-25T10:00:49;14.33;54.95
68378;DHT22;55322;48.146;11.516;2023-04-25T10:03:17;14.20;52.00
68378;DHT22;55322;48.146;11.516;2023-04-25T10:05:43;14.04;56.02
68378;DHT22;55322;48.146;11.516;2023-04-25T10:08:09;13.90;57.62
68378;DHT22;55322;48.146;11.516;2023-04-25T10:10:35;14.84;53.67
68378;DHT22;55322;48.146;11.516;2023-04-25T10:13:05;15.93;52.66
68378;DHT22;55322;48.146;11.516;2023-04-25T10:15:34;16.67;51.13
68378;DHT22;55322;48.146;11.516;2023-04-25T10:18:00;16.89;50.68
68378;DHT22;55322;48.146;11.516;2023-04-25T10:20:26;15.83;47.18
68378;DHT22;55322;48.146;11.516;2023-04-25T10:22:54;15.17;49.11
68378;DHT22;55322;48.146;11.516;2023-04-25T10:25:22;14.49;52.27
68378;DHT22;55322;48.146;11.516;2023-04-25T10:27:51;14.02;52.05
68378;DHT22;55322;48.146;11.516;2023-04-25T10:30:18;13.68;54.20
68378;DHT22;55322;48.146;11.516;2023-04-25T10:32:44;13.14;59.30
68378;DHT22;55322;48.146;11.516;2023-04-25T10:35:18;12.64;60.70
68378;DHT22;55322;48.146;11.516;2023-04-25T10:38:00;12.26;57.36
68378;DHT22;55322;48.146;11.516;2023-04-25T10:40:28;11.78;58.97
68378;DHT22;55322;48.146;11.516;2023-04-25T10:42:54;11.31;58.43
68378;DHT22;55322;48.146;11.516;2023-04-25T10:45:20;11.17;60.64
68378;DHT22;55322;48.146;11.516;2023-04-25T10:47:45;11.06;60.90
68378;DHT22;55322;48.146;11.516;2023-04-25T10:50:11;11.13;60.31
68378;DHT22;55322;48.146;11.516;2023-04-25T10:52:39;10.99;63.52
68378;DHT22;55322;48.146;11.516;2023-04-25T10:55:05;11.09;64.34
68378;DHT22;55322;48.146;11.516;2023-04-25T11:02:40;11.23;66.29
68378;DHT22;55322;48.146;11.516;2023-04-25T11:05:06;11.22;65.42
68378;DHT22;55322;48.146;11.516;2023-04-25T11:07:37;11.30;65.45
68378;DHT22;55322;48.146;11.516;2023-04-25T11:10:03;11.31;65.24
68378;DHT22;55322;48.146;11.516;2023-04-25T11:12:30;11.41;64.00
68378;DHT22;55322;48.146;11.516;2023-04-25T11:15:03;11.28;66.72
68378;DHT22;55322;48.146;11.516;2023-04-25T11:17:29;11.38;63.38
68378;DHT22;55322;48.146;11.516;2023-04-25T11:19:55;11.47;62.71
68378;DHT22;55322;48.146;11.516;2023-04-25T11:22:21;11.79;67.35
68378;DHT22;55322;48.146;11.516;2023-04-25T11:24:47;11.71;62.35
68378;DHT22;55322;48.146;11.516;2023-04-25T11:27:12;11.64;64.92
68378;DHT22;55322;48.146;11.516;2023-04-25T11:29:38;11.57;62.04
68378;DHT22;55322;48.146;11.516;2023-04-25T11:32:03;10.93;66.32
68378;DHT22;55322;48.146;11.516;2023-04-25T11:34:30;10.77;68.72
68378;DHT22;55322;48.146;11.516;2023-04-25T11:36:56;10.69;68.72
68378;DHT22;55322;48.146;11.516;2023-04-25T11:39:24;10.65;70.93
68378;DHT22;55322;48.146;11.516;2023-04-25T11:41:49;10.73;68.13
68378;DHT22;55322;48.146;11.516;2023-04-25T11:44:16;10.70;68.31
68378;DHT22;55322;48.146;11.516;2023-04-25T11:46:42;10.38;69.94
68378;DHT22;55322;48.146;11.516;2023-04-25T11:49:07;10.04;73.71
68378;DHT22;55322;48.146;11.516;2023-04-25T11:51:43;9.70;75.43
68378;DHT22;55322;48.146;11.516;2023-04-25T11:54:09;9.61;77.30
68378;DHT22;55322;48.146;11.516;2023-04-25T11:56:35;9.65;77.21
68378;DHT22;55322;48.146;11.516;2023-04-25T11:59:05;9.50;78.29
68378;DHT22;55322;48.146;11.516;2023-04-25T12:01:35;9.57;77.95
68378;DHT22;55322;48.146;11.516;2023-04-25T12:06:44;9.43;75.81
68378;DHT22;55322;48.146;11.516;2023-04-25T12:09:14;9.32;75.89
68378;DHT22;55322;48.146;11.516;2023-04-25T12:11:44;9.24;76.72
68378;DHT22;55322;48.146;11.516;2023-04-25T12:14:10;9.32;76.38
68378;DHT22;55322;48.146;11.516;2023-04-25T12:16:46;9.36;75.69
68378;DHT22;55322;48.146;11.516;2023-04-25T12:19:19;9.50;76.95
68378;DHT22;55322;48.146;11.516;2023-04-25T12:21:45;9.46;76.41
68378;DHT22;55322;48.146;11.516;2023-04-25T12:26:58;9.43;76.24
68378;DHT22;55322;48.146;11.516;2023-04-25T12:29:25;9.39;75.96
68378;DHT22;55322;48.146;11.516;2023-04-25T12:31:52;9.40;75.65
68378;DHT22;55322;48.146;11.516;2023-04-25T12:34:19;9.36;75.73
68378;DHT22;55322;48.146;11.516;2023-04-25T12:36:44;9.53;76.57
68378;DHT22;55322;48.146;11.516;2023-04-25T12:39:20;9.73;74.59
68378;DHT22;55322;48.146;11.516;2023-04-25T12:41:47;9.81;74.10
68378;DHT22;55322;48.146;11.516;2023-04-25T12:44:12;9.69;75.63
68378;DHT22;55322;48.146;11.516;2023-04-25T12:46:38;9.67;75.63
68378;DHT22;55322;48.146;11.516;2023-04-25T12:49:04;9.67;75.62
68378;DHT22;55322;48.146;11.516;2023-04-25T12:51:31;9.65;75.21
68378;DHT22;55322;48.146;11.516;2023-04-25T12:53:58;9.47;76.21
68378;DHT22;55322;48.146;11.516;2023-04-25T12:56:23;9.50;76.46
68378;DHT22;55322;48.146;11.516;2023-04-25T12:58:49;9.43;77.50
68378;DHT22;55322;48.146;11.516;2023-04-25T13:01:15;9.30;77.61
68378;DHT22;55322;48.146;11.516;2023-04-25T13:03:40;9.24;77.28
68378;DHT22;55322;48.146;11.516;2023-04-25T13:06:06;9.20;78.94
68378;DHT22;55322;48.146;11.516;2023-04-25T13:08:32;9.27;79.51
68378;DHT22;55322;48.146;11.516;2023-04-25T13:10:57;9.08;77.47
68378;DHT22;55322;48.146;11.516;2023-04-25T13:13:23;9.09;79.55
68378;DHT22;55322;48.146;11.516;2023-04-25T13:15:48;8.82;81.87
68378;DHT22;55322;48.146;11.516;2023-04-25T13:18:14;8.93;83.96
68378;DHT22;55322;48.146;11.516;2023-04-25T13:20:39;8.99;84.04
68378;DHT22;55322;48.146;11.516;2023-04-25T13:23:04;8.80;81.97
68378;DHT22;55322;48.146;11.516;2023-04-25T13:25:30;8.95;83.32
68378;DHT22;55322;48.146;11.516;2023-04-25T13:27:55;8.86;82.53
68378;DHT22;55322;48.146;11.516;2023-04-25T13:30:20;8.78;84.49
68378;DHT22;55322;48.146;11.516;2023-04-25T13:32:46;8.78;84.20
68378;DHT22;55322;48.146;11.516;2023-04-25T13:35:12;8.15;84.79
68378;DHT22;55322;48.146;11.516;2023-04-25T13:37:39;7.95;84.94
68378;DHT22;55322;48.146;11.516;2023-04-25T13:40:09;7.86;85.62
68378;DHT22;55322;48.146;11.516;2023-04-25T13:42:36;7.77;85.62
68378;DHT22;55322;48.146;11.516;2023-04-25T13:45:02;7.56;86.94
68378;DHT22;55322;48.146;11.516;2023-04-25T13:47:28;7.60;87.25
68378;DHT22;55322;48.146;11.516;2023-04-25T13:49:54;7.67;88.23
68378;DHT22;55322;48.146;11.516;2023-04-25T13:52:19;7.98;86.88
68378;DHT22;55322;48.146;11.516;2023-04-25T13:54:45;7.97;87.11
68378;DHT22;55322;48.146;11.516;2023-04-25T13:57:10;8.18;87.84
68378;DHT22;55322;48.146;11.516;2023-04-25T13:59:37;8.30;87.50
68378;DHT22;55322;48.146;11.516;2023-04-25T14:02:02;8.20;87.88
68378;DHT22;55322;48.146;11.516;2023-04-25T14:04:28;8.03;85.78
68378;DHT22;55322;48.146;11.516;2023-04-25T14:06:53;8.00;86.69
68378;DHT22;55322;48.146;11.516;2023-04-25T14:09:19;7.91;87.50
68378;DHT22;55322;48.146;11.516;2023-04-25T14:11:50;7.90;87.67
68378;DHT22;55322;48.146;11.516;2023-04-25T14:14:16;8.14;88.12
68378;DHT22;55322;48.146;11.516;2023-04-25T14:16:41;7.98;87.25
68378;DHT22;55322;48.146;11.516;2023-04-25T14:19:06;8.10;88.38
68378;DHT22;55322;48.146;11.516;2023-04-25T14:21:32;7.95;88.54
68378;DHT22;55322;48.146;11.516;2023-04-25T14:23:57;8.07;87.89
68378;DHT22;55322;48.146;11.516;2023-04-25T14:26:23;8.23;86.60
68378;DHT22;55322;48.146;11.516;2023-04-25T14:28:48;8.41;87.77
68378;DHT22;55322;48.146;11.516;2023-04-25T14:31:14;8.73;87.05
68378;DHT22;55322;48.146;11.516;2023-04-25T14:33:39;8.75;85.94
68378;DHT22;55322;48.146;11.516;2023-04-25T14:36:07;8.89;85.18
68378;DHT22;55322;48.146;11.516;2023-04-25T14:38:33;8.99;85.46
68378;DHT22;55322;48.146;11.516;2023-04-25T14:40:58;9.20;85.95
68378;DHT22;55322;48.146;11.516;2023-04-25T14:43:23;9.26;85.08
68378;DHT22;55322;48.146;11.516;2023-04-25T14:45:49;9.36;83.67
68378;DHT22;55322;48.146;11.516;2023-04-25T14:48:14;9.33;82.95
68378;DHT22;55322;48.146;11.516;2023-04-25T14:50:40;9.15;83.32
68378;DHT22;55322;48.146;11.516;2023-04-25T14:53:05;8.93;83.75
68378;DHT22;55322;48.146;11.516;2023-04-25T14:55:31;9.22;84.21
68378;DHT22;55322;48.146;11.516;2023-04-25T14:57:56;9.34;83.50
68378;DHT22;55322;48.146;11.516;2023-04-25T15:00:22;9.09;82.70
68378;DHT22;55322;48.146;11.516;2023-04-25T15:02:48;9.13;83.71
68378;DHT22;55322;48.146;11.516;2023-04-25T15:05:14;9.15;84.34
68378;DHT22;55322;48.146;11.516;2023-04-25T15:07:40;9.10;83.18
68378;DHT22;55322;48.146;11.516;2023-04-25T15:10:07;9.00;82.83
68378;DHT22;55322;48.146;11.516;2023-04-25T15:12:38;8.98;84.10
68378;DHT22;55322;48.146;11.516;2023-04-25T15:15:04;9.10;84.57
68378;DHT22;55322;48.146;11.516;2023-04-25T15:17:30;9.13;83.08
68378;DHT22;55322;48.146;11.516;2023-04-25T15:19:56;9.16;82.44
68378;DHT22;55322;48.146;11.516;2023-04-25T15:22:22;9.20;83.66
68378;DHT22;55322;48.146;11.516;2023-04-25T15:24:47;9.27;81.70
68378;DHT22;55322;48.146;11.516;2023-04-25T15:27:13;9.22;81.06
68378;DHT22;55322;48.146;11.516;2023-04-25T15:29:38;9.26;81.91
68378;DHT22;55322;48.146;11.516;2023-04-25T15:32:03;9.12;82.20
68378;DHT22;55322;48.146;11.516;2023-04-25T16:39:18;7.80;86.65